Terminal Aerodrome Forecast
Issued by NWS Amarillo, TX

Home | Current Version | Previous Version | Text Only | Print | Product List | Glossary On
Versions: 1 2 3 4 5 6 7 8 9 10 11 12 13 14 15 16 17 18 19
000
FTUS44 KAMA 300900 AAC
TAFDHT
TAF AMD
KDHT 300905Z 3009/3106 12007KT 6SM BR VCTS BKN005 OVC015CB
      TEMPO 3009/3011 3SM -TSRA BKN010CB
     FM301100 02006KT P6SM BKN020 OVC070
     FM301600 06010KT P6SM SCT040 BKN200
     FM310100 15008KT P6SM OVC040=

USA.gov is the U.S. government's official web portal to all federal, state and local government web resources and services.